sensor_id;sensor_type;location;lat;lon;timestamp;P1;durP1;ratioP1;P2;durP2;ratioP2
4867;SDS011;2448;48.086;10.862;2023-08-06T00:01:10;3.23;;;2.73;;
4867;SDS011;2448;48.086;10.862;2023-08-06T00:03:36;4.70;;;2.80;;
4867;SDS011;2448;48.086;10.862;2023-08-06T00:06:01;2.73;;;2.53;;
4867;SDS011;2448;48.086;10.862;2023-08-06T00:08:27;2.63;;;2.43;;
4867;SDS011;2448;48.086;10.862;2023-08-06T00:10:52;3.87;;;2.40;;
4867;SDS011;2448;48.086;10.862;2023-08-06T00:13:17;3.03;;;2.47;;
4867;SDS011;2448;48.086;10.862;2023-08-06T00:15:43;2.93;;;2.13;;
4867;SDS011;2448;48.086;10.862;2023-08-06T00:18:08;4.00;;;2.80;;
4867;SDS011;2448;48.086;10.862;2023-08-06T00:20:34;3.00;;;2.60;;
4867;SDS011;2448;48.086;10.862;2023-08-06T00:22:59;2.83;;;2.30;;
4867;SDS011;2448;48.086;10.862;2023-08-06T00:25:24;9.90;;;2.30;;
4867;SDS011;2448;48.086;10.862;2023-08-06T00:27:50;2.93;;;2.37;;
4867;SDS011;2448;48.086;10.862;2023-08-06T00:30:15;2.30;;;1.97;;
4867;SDS011;2448;48.086;10.862;2023-08-06T00:32:41;2.10;;;1.90;;
4867;SDS011;2448;48.086;10.862;2023-08-06T00:35:06;1.77;;;1.67;;
4867;SDS011;2448;48.086;10.862;2023-08-06T00:37:32;2.63;;;1.70;;
4867;SDS011;2448;48.086;10.862;2023-08-06T00:39:58;10.83;;;2.10;;
4867;SDS011;2448;48.086;10.862;2023-08-06T00:42:23;2.27;;;2.07;;
4867;SDS011;2448;48.086;10.862;2023-08-06T00:44:49;3.97;;;2.23;;
4867;SDS011;2448;48.086;10.862;2023-08-06T00:47:15;1.60;;;1.50;;
4867;SDS011;2448;48.086;10.862;2023-08-06T00:49:40;1.80;;;1.70;;
4867;SDS011;2448;48.086;10.862;2023-08-06T00:52:06;1.90;;;1.80;;
4867;SDS011;2448;48.086;10.862;2023-08-06T00:54:32;1.63;;;1.60;;
4867;SDS011;2448;48.086;10.862;2023-08-06T00:56:58;1.60;;;1.50;;
4867;SDS011;2448;48.086;10.862;2023-08-06T00:59:24;1.93;;;1.83;;
4867;SDS011;2448;48.086;10.862;2023-08-06T01:01:50;2.47;;;1.70;;
4867;SDS011;2448;48.086;10.862;2023-08-06T01:04:16;1.40;;;1.40;;
4867;SDS011;2448;48.086;10.862;2023-08-06T01:06:48;1.47;;;1.37;;
4867;SDS011;2448;48.086;10.862;2023-08-06T01:14:27;1.97;;;1.90;;
4867;SDS011;2448;48.086;10.862;2023-08-06T01:16:53;1.33;;;1.27;;
4867;SDS011;2448;48.086;10.862;2023-08-06T01:19:21;1.30;;;1.23;;
4867;SDS011;2448;48.086;10.862;2023-08-06T01:21:46;1.47;;;1.37;;
4867;SDS011;2448;48.086;10.862;2023-08-06T01:24:11;1.77;;;1.67;;
4867;SDS011;2448;48.086;10.862;2023-08-06T01:26:39;1.20;;;1.10;;
4867;SDS011;2448;48.086;10.862;2023-08-06T01:31:31;1.60;;;1.50;;
4867;SDS011;2448;48.086;10.862;2023-08-06T01:33:58;2.93;;;1.80;;
4867;SDS011;2448;48.086;10.862;2023-08-06T01:36:23;2.17;;;1.60;;
4867;SDS011;2448;48.086;10.862;2023-08-06T01:38:50;1.60;;;1.50;;
4867;SDS011;2448;48.086;10.862;2023-08-06T01:41:17;1.60;;;1.50;;
4867;SDS011;2448;48.086;10.862;2023-08-06T01:43:42;1.77;;;1.67;;
4867;SDS011;2448;48.086;10.862;2023-08-06T01:46:08;4.60;;;1.50;;
4867;SDS011;2448;48.086;10.862;2023-08-06T01:48:33;2.00;;;1.73;;
4867;SDS011;2448;48.086;10.862;2023-08-06T01:50:58;1.83;;;1.20;;
4867;SDS011;2448;48.086;10.862;2023-08-06T01:53:24;1.63;;;1.53;;
4867;SDS011;2448;48.086;10.862;2023-08-06T01:55:51;1.57;;;1.47;;
4867;SDS011;2448;48.086;10.862;2023-08-06T01:58:16;1.73;;;1.63;;
4867;SDS011;2448;48.086;10.862;2023-08-06T02:00:42;1.43;;;1.33;;
4867;SDS011;2448;48.086;10.862;2023-08-06T02:03:07;1.70;;;1.60;;
4867;SDS011;2448;48.086;10.862;2023-08-06T02:05:33;1.60;;;1.37;;
4867;SDS011;2448;48.086;10.862;2023-08-06T02:07:58;1.60;;;1.50;;
4867;SDS011;2448;48.086;10.862;2023-08-06T02:10:23;3.87;;;2.03;;
4867;SDS011;2448;48.086;10.862;2023-08-06T02:12:49;1.67;;;1.57;;
4867;SDS011;2448;48.086;10.862;2023-08-06T02:15:14;1.80;;;1.70;;
4867;SDS011;2448;48.086;10.862;2023-08-06T02:17:40;1.20;;;1.10;;
4867;SDS011;2448;48.086;10.862;2023-08-06T02:20:05;1.60;;;1.50;;
4867;SDS011;2448;48.086;10.862;2023-08-06T02:22:30;1.70;;;1.63;;
4867;SDS011;2448;48.086;10.862;2023-08-06T02:24:56;1.43;;;1.33;;
4867;SDS011;2448;48.086;10.862;2023-08-06T02:27:21;3.13;;;1.50;;
4867;SDS011;2448;48.086;10.862;2023-08-06T02:29:46;3.30;;;1.33;;
4867;SDS011;2448;48.086;10.862;2023-08-06T02:32:12;1.43;;;1.43;;
4867;SDS011;2448;48.086;10.862;2023-08-06T02:34:37;2.27;;;1.87;;
4867;SDS011;2448;48.086;10.862;2023-08-06T02:37:03;1.50;;;1.50;;
4867;SDS011;2448;48.086;10.862;2023-08-06T02:39:28;1.40;;;1.40;;
4867;SDS011;2448;48.086;10.862;2023-08-06T02:41:53;1.93;;;1.83;;
4867;SDS011;2448;48.086;10.862;2023-08-06T02:44:19;1.77;;;1.67;;
4867;SDS011;2448;48.086;10.862;2023-08-06T02:46:44;7.00;;;1.40;;
4867;SDS011;2448;48.086;10.862;2023-08-06T02:49:10;3.03;;;1.40;;
4867;SDS011;2448;48.086;10.862;2023-08-06T02:51:36;2.00;;;1.90;;
4867;SDS011;2448;48.086;10.862;2023-08-06T02:54:01;1.80;;;1.70;;
4867;SDS011;2448;48.086;10.862;2023-08-06T02:56:26;1.47;;;1.37;;
4867;SDS011;2448;48.086;10.862;2023-08-06T02:59:12;2.03;;;1.30;;
4867;SDS011;2448;48.086;10.862;2023-08-06T03:02:04;1.47;;;1.37;;
4867;SDS011;2448;48.086;10.862;2023-08-06T03:04:40;1.40;;;1.30;;
4867;SDS011;2448;48.086;10.862;2023-08-06T03:07:06;3.37;;;2.37;;
4867;SDS011;2448;48.086;10.862;2023-08-06T03:09:39;1.37;;;1.27;;
4867;SDS011;2448;48.086;10.862;2023-08-06T03:12:05;1.40;;;1.40;;
4867;SDS011;2448;48.086;10.862;2023-08-06T03:14:31;1.30;;;1.20;;
4867;SDS011;2448;48.086;10.862;2023-08-06T03:16:57;1.60;;;1.50;;
4867;SDS011;2448;48.086;10.862;2023-08-06T03:19:23;2.40;;;1.60;;
4867;SDS011;2448;48.086;10.862;2023-08-06T03:21:48;1.57;;;1.47;;
4867;SDS011;2448;48.086;10.862;2023-08-06T03:24:14;1.30;;;1.30;;
4867;SDS011;2448;48.086;10.862;2023-08-06T03:26:40;9.77;;;2.20;;
4867;SDS011;2448;48.086;10.862;2023-08-06T03:29:06;1.80;;;1.70;;
4867;SDS011;2448;48.086;10.862;2023-08-06T03:31:33;1.00;;;1.00;;
4867;SDS011;2448;48.086;10.862;2023-08-06T03:33:58;2.30;;;1.80;;
4867;SDS011;2448;48.086;10.862;2023-08-06T03:36:26;1.50;;;1.50;;
4867;SDS011;2448;48.086;10.862;2023-08-06T03:38:52;1.33;;;1.23;;
4867;SDS011;2448;48.086;10.862;2023-08-06T03:41:17;2.20;;;1.77;;
4867;SDS011;2448;48.086;10.862;2023-08-06T03:43:44;1.83;;;1.47;;
4867;SDS011;2448;48.086;10.862;2023-08-06T03:46:15;1.03;;;1.03;;
4867;SDS011;2448;48.086;10.862;2023-08-06T03:48:41;1.63;;;1.40;;
4867;SDS011;2448;48.086;10.862;2023-08-06T03:51:06;2.50;;;1.40;;
4867;SDS011;2448;48.086;10.862;2023-08-06T03:53:31;1.40;;;1.30;;
4867;SDS011;2448;48.086;10.862;2023-08-06T03:55:57;1.47;;;1.47;;
4867;SDS011;2448;48.086;10.862;2023-08-06T03:58:25;1.70;;;1.30;;
4867;SDS011;2448;48.086;10.862;2023-08-06T04:01:01;1.43;;;1.37;;
4867;SDS011;2448;48.086;10.862;2023-08-06T04:03:31;1.40;;;1.30;;
4867;SDS011;2448;48.086;10.862;2023-08-06T04:05:56;1.97;;;1.50;;
4867;SDS011;2448;48.086;10.862;2023-08-06T04:08:22;1.60;;;1.50;;
4867;SDS011;2448;48.086;10.862;2023-08-06T04:10:53;1.33;;;1.23;;
4867;SDS011;2448;48.086;10.862;2023-08-06T04:13:19;1.30;;;1.20;;
4867;SDS011;2448;48.086;10.862;2023-08-06T04:15:45;1.70;;;1.60;;
4867;SDS011;2448;48.086;10.862;2023-08-06T04:18:10;2.40;;;1.40;;
4867;SDS011;2448;48.086;10.862;2023-08-06T04:20:42;4.00;;;1.50;;
4867;SDS011;2448;48.086;10.862;2023-08-06T04:23:07;1.63;;;1.40;;
4867;SDS011;2448;48.086;10.862;2023-08-06T04:25:33;3.70;;;1.83;;
4867;SDS011;2448;48.086;10.862;2023-08-06T04:27:58;1.60;;;1.50;;
4867;SDS011;2448;48.086;10.862;2023-08-06T04:30:24;1.60;;;1.50;;
4867;SDS011;2448;48.086;10.862;2023-08-06T04:32:50;1.80;;;1.70;;
4867;SDS011;2448;48.086;10.862;2023-08-06T04:35:16;1.43;;;1.43;;
4867;SDS011;2448;48.086;10.862;2023-08-06T04:37:42;1.63;;;1.63;;
4867;SDS011;2448;48.086;10.862;2023-08-06T04:40:07;1.93;;;1.63;;
4867;SDS011;2448;48.086;10.862;2023-08-06T04:42:33;1.73;;;1.63;;
4867;SDS011;2448;48.086;10.862;2023-08-06T04:44:58;1.60;;;1.50;;
4867;SDS011;2448;48.086;10.862;2023-08-06T04:47:24;1.30;;;1.27;;
4867;SDS011;2448;48.086;10.862;2023-08-06T04:49:51;7.63;;;1.50;;
4867;SDS011;2448;48.086;10.862;2023-08-06T04:52:16;1.77;;;1.67;;
4867;SDS011;2448;48.086;10.862;2023-08-06T04:54:43;1.57;;;1.47;;
4867;SDS011;2448;48.086;10.862;2023-08-06T04:57:08;1.60;;;1.50;;
4867;SDS011;2448;48.086;10.862;2023-08-06T04:59:34;1.77;;;1.67;;
4867;SDS011;2448;48.086;10.862;2023-08-06T05:01:59;2.27;;;2.07;;
4867;SDS011;2448;48.086;10.862;2023-08-06T05:04:24;2.67;;;1.63;;
4867;SDS011;2448;48.086;10.862;2023-08-06T05:06:50;0.93;;;0.93;;
4867;SDS011;2448;48.086;10.862;2023-08-06T05:09:15;0.93;;;0.93;;
4867;SDS011;2448;48.086;10.862;2023-08-06T05:11:40;4.00;;;1.30;;
4867;SDS011;2448;48.086;10.862;2023-08-06T05:14:06;1.27;;;1.27;;
4867;SDS011;2448;48.086;10.862;2023-08-06T05:16:31;1.10;;;1.10;;
4867;SDS011;2448;48.086;10.862;2023-08-06T05:18:56;1.07;;;1.07;;
4867;SDS011;2448;48.086;10.862;2023-08-06T05:21:22;1.27;;;1.27;;
4867;SDS011;2448;48.086;10.862;2023-08-06T05:23:47;2.30;;;1.30;;
4867;SDS011;2448;48.086;10.862;2023-08-06T05:26:12;1.87;;;1.20;;
4867;SDS011;2448;48.086;10.862;2023-08-06T05:28:39;0.93;;;0.93;;
4867;SDS011;2448;48.086;10.862;2023-08-06T05:31:06;1.50;;;1.40;;
4867;SDS011;2448;48.086;10.862;2023-08-06T05:33:31;1.77;;;1.20;;
4867;SDS011;2448;48.086;10.862;2023-08-06T05:35:57;1.60;;;1.43;;
4867;SDS011;2448;48.086;10.862;2023-08-06T05:38:22;0.93;;;0.90;;
4867;SDS011;2448;48.086;10.862;2023-08-06T05:40:48;1.87;;;1.23;;
4867;SDS011;2448;48.086;10.862;2023-08-06T05:43:14;3.03;;;1.20;;
4867;SDS011;2448;48.086;10.862;2023-08-06T05:45:39;1.30;;;1.20;;
4867;SDS011;2448;48.086;10.862;2023-08-06T05:48:05;0.90;;;0.90;;
4867;SDS011;2448;48.086;10.862;2023-08-06T05:50:30;1.10;;;1.10;;
4867;SDS011;2448;48.086;10.862;2023-08-06T05:52:55;0.87;;;0.87;;
4867;SDS011;2448;48.086;10.862;2023-08-06T05:55:21;1.03;;;1.00;;
4867;SDS011;2448;48.086;10.862;2023-08-06T05:57:46;0.80;;;0.80;;
4867;SDS011;2448;48.086;10.862;2023-08-06T06:00:12;1.17;;;1.17;;
4867;SDS011;2448;48.086;10.862;2023-08-06T06:02:40;0.73;;;0.73;;
4867;SDS011;2448;48.086;10.862;2023-08-06T06:05:05;1.00;;;1.00;;
4867;SDS011;2448;48.086;10.862;2023-08-06T06:07:31;1.10;;;1.00;;
4867;SDS011;2448;48.086;10.862;2023-08-06T06:09:56;1.90;;;0.80;;
4867;SDS011;2448;48.086;10.862;2023-08-06T06:12:21;0.67;;;0.67;;
4867;SDS011;2448;48.086;10.862;2023-08-06T06:14:47;1.23;;;1.10;;
4867;SDS011;2448;48.086;10.862;2023-08-06T06:17:13;0.80;;;0.80;;
4867;SDS011;2448;48.086;10.862;2023-08-06T06:19:38;1.27;;;1.17;;
4867;SDS011;2448;48.086;10.862;2023-08-06T06:22:03;1.37;;;1.27;;
4867;SDS011;2448;48.086;10.862;2023-08-06T06:24:29;4.20;;;0.87;;
4867;SDS011;2448;48.086;10.862;2023-08-06T06:26:54;2.57;;;1.00;;
4867;SDS011;2448;48.086;10.862;2023-08-06T06:29:20;1.43;;;1.00;;
4867;SDS011;2448;48.086;10.862;2023-08-06T06:31:45;2.23;;;0.73;;
4867;SDS011;2448;48.086;10.862;2023-08-06T06:34:10;0.80;;;0.80;;
4867;SDS011;2448;48.086;10.862;2023-08-06T06:36:36;3.33;;;1.43;;
4867;SDS011;2448;48.086;10.862;2023-08-06T06:39:01;1.10;;;1.00;;
4867;SDS011;2448;48.086;10.862;2023-08-06T06:41:27;1.50;;;0.70;;
4867;SDS011;2448;48.086;10.862;2023-08-06T06:44:02;0.77;;;0.77;;
4867;SDS011;2448;48.086;10.862;2023-08-06T06:46:27;2.20;;;1.00;;
4867;SDS011;2448;48.086;10.862;2023-08-06T06:48:53;0.87;;;0.87;;
4867;SDS011;2448;48.086;10.862;2023-08-06T06:51:18;1.33;;;0.80;;
4867;SDS011;2448;48.086;10.862;2023-08-06T06:53:43;1.10;;;1.10;;
4867;SDS011;2448;48.086;10.862;2023-08-06T06:56:09;0.73;;;0.70;;
4867;SDS011;2448;48.086;10.862;2023-08-06T06:58:34;6.93;;;1.40;;
4867;SDS011;2448;48.086;10.862;2023-08-06T07:01:00;0.77;;;0.77;;
4867;SDS011;2448;48.086;10.862;2023-08-06T07:03:25;0.80;;;0.80;;
4867;SDS011;2448;48.086;10.862;2023-08-06T07:05:50;7.40;;;0.87;;
4867;SDS011;2448;48.086;10.862;2023-08-06T07:08:16;1.07;;;0.90;;
4867;SDS011;2448;48.086;10.862;2023-08-06T07:10:42;2.30;;;0.87;;
4867;SDS011;2448;48.086;10.862;2023-08-06T07:13:08;1.57;;;0.90;;
4867;SDS011;2448;48.086;10.862;2023-08-06T07:15:33;0.70;;;0.70;;
4867;SDS011;2448;48.086;10.862;2023-08-06T07:17:58;0.90;;;0.90;;
4867;SDS011;2448;48.086;10.862;2023-08-06T07:20:24;0.53;;;0.53;;
4867;SDS011;2448;48.086;10.862;2023-08-06T07:22:49;0.60;;;0.60;;
4867;SDS011;2448;48.086;10.862;2023-08-06T07:25:15;0.70;;;0.70;;
4867;SDS011;2448;48.086;10.862;2023-08-06T07:27:41;1.60;;;1.00;;
4867;SDS011;2448;48.086;10.862;2023-08-06T07:30:06;0.50;;;0.50;;
4867;SDS011;2448;48.086;10.862;2023-08-06T07:32:32;1.07;;;1.07;;
4867;SDS011;2448;48.086;10.862;2023-08-06T07:34:57;0.80;;;0.60;;
4867;SDS011;2448;48.086;10.862;2023-08-06T07:37:25;1.93;;;0.63;;
4867;SDS011;2448;48.086;10.862;2023-08-06T07:39:53;1.37;;;0.80;;
4867;SDS011;2448;48.086;10.862;2023-08-06T07:42:18;0.50;;;0.50;;
4867;SDS011;2448;48.086;10.862;2023-08-06T07:44:55;0.50;;;0.50;;
4867;SDS011;2448;48.086;10.862;2023-08-06T07:47:21;0.50;;;0.50;;
4867;SDS011;2448;48.086;10.862;2023-08-06T07:49:47;0.50;;;0.50;;
4867;SDS011;2448;48.086;10.862;2023-08-06T07:52:12;0.60;;;0.60;;
4867;SDS011;2448;48.086;10.862;2023-08-06T07:54:37;0.40;;;0.40;;
4867;SDS011;2448;48.086;10.862;2023-08-06T07:57:03;0.60;;;0.60;;
4867;SDS011;2448;48.086;10.862;2023-08-06T07:59:28;0.53;;;0.53;;
4867;SDS011;2448;48.086;10.862;2023-08-06T08:01:54;0.40;;;0.40;;
4867;SDS011;2448;48.086;10.862;2023-08-06T08:04:19;0.60;;;0.60;;
4867;SDS011;2448;48.086;10.862;2023-08-06T08:06:46;4.67;;;0.70;;
4867;SDS011;2448;48.086;10.862;2023-08-06T08:09:11;0.43;;;0.43;;
4867;SDS011;2448;48.086;10.862;2023-08-06T08:11:38;0.77;;;0.77;;
4867;SDS011;2448;48.086;10.862;2023-08-06T08:14:04;2.10;;;0.60;;
4867;SDS011;2448;48.086;10.862;2023-08-06T08:16:29;0.63;;;0.53;;
4867;SDS011;2448;48.086;10.862;2023-08-06T08:18:55;2.00;;;0.63;;
4867;SDS011;2448;48.086;10.862;2023-08-06T08:21:20;0.50;;;0.50;;
4867;SDS011;2448;48.086;10.862;2023-08-06T08:23:46;0.53;;;0.53;;
4867;SDS011;2448;48.086;10.862;2023-08-06T08:26:11;0.40;;;0.40;;
4867;SDS011;2448;48.086;10.862;2023-08-06T08:28:36;0.50;;;0.50;;
4867;SDS011;2448;48.086;10.862;2023-08-06T08:31:02;1.23;;;0.70;;
4867;SDS011;2448;48.086;10.862;2023-08-06T08:33:27;0.50;;;0.50;;
4867;SDS011;2448;48.086;10.862;2023-08-06T08:35:53;1.00;;;0.90;;
4867;SDS011;2448;48.086;10.862;2023-08-06T08:38:18;0.50;;;0.50;;
4867;SDS011;2448;48.086;10.862;2023-08-06T08:40:47;0.40;;;0.40;;
4867;SDS011;2448;48.086;10.862;2023-08-06T08:43:13;0.50;;;0.50;;
4867;SDS011;2448;48.086;10.862;2023-08-06T08:45:39;0.50;;;0.50;;
4867;SDS011;2448;48.086;10.862;2023-08-06T08:48:05;0.40;;;0.40;;
4867;SDS011;2448;48.086;10.862;2023-08-06T08:50:31;0.43;;;0.43;;
4867;SDS011;2448;48.086;10.862;2023-08-06T08:52:56;0.43;;;0.43;;
4867;SDS011;2448;48.086;10.862;2023-08-06T08:55:22;0.60;;;0.60;;
4867;SDS011;2448;48.086;10.862;2023-08-06T08:57:48;0.60;;;0.60;;
4867;SDS011;2448;48.086;10.862;2023-08-06T09:00:13;0.40;;;0.40;;
4867;SDS011;2448;48.086;10.862;2023-08-06T09:02:39;0.63;;;0.40;;
4867;SDS011;2448;48.086;10.862;2023-08-06T09:05:05;0.40;;;0.40;;
4867;SDS011;2448;48.086;10.862;2023-08-06T09:07:32;0.60;;;0.60;;
4867;SDS011;2448;48.086;10.862;2023-08-06T09:10:01;0.60;;;0.60;;
4867;SDS011;2448;48.086;10.862;2023-08-06T09:12:27;0.50;;;0.50;;
4867;SDS011;2448;48.086;10.862;2023-08-06T09:14:52;0.40;;;0.40;;
4867;SDS011;2448;48.086;10.862;2023-08-06T09:17:19;2.73;;;0.60;;
4867;SDS011;2448;48.086;10.862;2023-08-06T09:19:45;0.40;;;0.40;;
4867;SDS011;2448;48.086;10.862;2023-08-06T09:22:13;0.57;;;0.57;;
4867;SDS011;2448;48.086;10.862;2023-08-06T09:24:42;0.53;;;0.47;;
4867;SDS011;2448;48.086;10.862;2023-08-06T09:27:11;0.50;;;0.50;;
4867;SDS011;2448;48.086;10.862;2023-08-06T09:29:40;0.40;;;0.40;;
4867;SDS011;2448;48.086;10.862;2023-08-06T09:32:05;0.50;;;0.50;;
4867;SDS011;2448;48.086;10.862;2023-08-06T09:34:31;0.50;;;0.50;;
4867;SDS011;2448;48.086;10.862;2023-08-06T09:36:56;0.40;;;0.40;;
4867;SDS011;2448;48.086;10.862;2023-08-06T09:39:26;1.13;;;0.60;;
4867;SDS011;2448;48.086;10.862;2023-08-06T09:41:55;0.60;;;0.60;;
4867;SDS011;2448;48.086;10.862;2023-08-06T09:44:21;0.40;;;0.40;;
4867;SDS011;2448;48.086;10.862;2023-08-06T09:46:48;0.50;;;0.50;;
4867;SDS011;2448;48.086;10.862;2023-08-06T09:49:14;0.47;;;0.47;;
4867;SDS011;2448;48.086;10.862;2023-08-06T09:51:40;2.20;;;0.50;;
4867;SDS011;2448;48.086;10.862;2023-08-06T09:54:06;0.60;;;0.60;;
4867;SDS011;2448;48.086;10.862;2023-08-06T09:56:33;0.63;;;0.60;;
4867;SDS011;2448;48.086;10.862;2023-08-06T09:59:04;0.40;;;0.40;;
4867;SDS011;2448;48.086;10.862;2023-08-06T10:01:31;0.50;;;0.50;;
4867;SDS011;2448;48.086;10.862;2023-08-06T10:03:57;0.40;;;0.40;;
4867;SDS011;2448;48.086;10.862;2023-08-06T10:06:22;0.50;;;0.50;;
4867;SDS011;2448;48.086;10.862;2023-08-06T10:08:49;0.50;;;0.50;;
4867;SDS011;2448;48.086;10.862;2023-08-06T10:11:14;0.50;;;0.50;;
4867;SDS011;2448;48.086;10.862;2023-08-06T10:13:41;0.60;;;0.60;;
4867;SDS011;2448;48.086;10.862;2023-08-06T10:16:06;0.50;;;0.50;;
4867;SDS011;2448;48.086;10.862;2023-08-06T10:18:32;0.40;;;0.40;;
4867;SDS011;2448;48.086;10.862;2023-08-06T10:20:59;0.40;;;0.40;;
4867;SDS011;2448;48.086;10.862;2023-08-06T10:23:32;0.50;;;0.50;;
4867;SDS011;2448;48.086;10.862;2023-08-06T10:25:58;0.40;;;0.40;;
4867;SDS011;2448;48.086;10.862;2023-08-06T10:28:30;0.40;;;0.40;;
4867;SDS011;2448;48.086;10.862;2023-08-06T10:30:59;0.40;;;0.40;;
4867;SDS011;2448;48.086;10.862;2023-08-06T10:33:39;0.50;;;0.50;;
4867;SDS011;2448;48.086;10.862;2023-08-06T10:36:06;0.40;;;0.40;;
4867;SDS011;2448;48.086;10.862;2023-08-06T10:38:34;0.50;;;0.50;;
4867;SDS011;2448;48.086;10.862;2023-08-06T10:41:02;0.40;;;0.40;;
4867;SDS011;2448;48.086;10.862;2023-08-06T10:43:31;0.40;;;0.40;;
4867;SDS011;2448;48.086;10.862;2023-08-06T10:46:09;0.40;;;0.40;;
4867;SDS011;2448;48.086;10.862;2023-08-06T10:48:35;0.40;;;0.40;;
4867;SDS011;2448;48.086;10.862;2023-08-06T10:51:07;0.50;;;0.50;;
4867;SDS011;2448;48.086;10.862;2023-08-06T10:53:32;0.40;;;0.40;;
4867;SDS011;2448;48.086;10.862;2023-08-06T10:55:58;0.40;;;0.40;;
4867;SDS011;2448;48.086;10.862;2023-08-06T10:58:23;0.40;;;0.40;;
4867;SDS011;2448;48.086;10.862;2023-08-06T11:00:49;0.47;;;0.47;;
4867;SDS011;2448;48.086;10.862;2023-08-06T11:03:14;1.00;;;0.40;;
4867;SDS011;2448;48.086;10.862;2023-08-06T11:05:40;0.40;;;0.40;;
4867;SDS011;2448;48.086;10.862;2023-08-06T11:08:05;0.43;;;0.43;;
4867;SDS011;2448;48.086;10.862;2023-08-06T11:10:32;0.50;;;0.50;;
4867;SDS011;2448;48.086;10.862;2023-08-06T11:13:01;0.87;;;0.50;;
4867;SDS011;2448;48.086;10.862;2023-08-06T11:15:28;0.40;;;0.40;;
4867;SDS011;2448;48.086;10.862;2023-08-06T11:17:55;0.47;;;0.47;;
4867;SDS011;2448;48.086;10.862;2023-08-06T11:20:20;0.50;;;0.50;;
4867;SDS011;2448;48.086;10.862;2023-08-06T11:22:46;0.50;;;0.50;;
4867;SDS011;2448;48.086;10.862;2023-08-06T11:25:12;0.40;;;0.40;;
4867;SDS011;2448;48.086;10.862;2023-08-06T11:27:37;0.40;;;0.40;;
4867;SDS011;2448;48.086;10.862;2023-08-06T11:30:03;0.40;;;0.40;;
4867;SDS011;2448;48.086;10.862;2023-08-06T11:32:29;0.97;;;0.60;;
4867;SDS011;2448;48.086;10.862;2023-08-06T11:34:54;0.43;;;0.43;;
4867;SDS011;2448;48.086;10.862;2023-08-06T11:37:20;0.50;;;0.50;;
4867;SDS011;2448;48.086;10.862;2023-08-06T11:39:47;0.40;;;0.40;;
4867;SDS011;2448;48.086;10.862;2023-08-06T11:42:15;0.70;;;0.70;;
4867;SDS011;2448;48.086;10.862;2023-08-06T11:44:41;0.50;;;0.50;;
4867;SDS011;2448;48.086;10.862;2023-08-06T11:47:13;0.50;;;0.50;;
4867;SDS011;2448;48.086;10.862;2023-08-06T11:49:40;0.50;;;0.50;;
4867;SDS011;2448;48.086;10.862;2023-08-06T11:54:35;0.50;;;0.50;;
4867;SDS011;2448;48.086;10.862;2023-08-06T11:57:02;0.40;;;0.40;;
4867;SDS011;2448;48.086;10.862;2023-08-06T11:59:27;0.40;;;0.40;;
4867;SDS011;2448;48.086;10.862;2023-08-06T12:01:53;0.40;;;0.40;;
4867;SDS011;2448;48.086;10.862;2023-08-06T12:04:18;0.50;;;0.50;;
4867;SDS011;2448;48.086;10.862;2023-08-06T12:06:46;0.50;;;0.50;;
4867;SDS011;2448;48.086;10.862;2023-08-06T12:09:12;0.40;;;0.40;;
4867;SDS011;2448;48.086;10.862;2023-08-06T12:11:37;0.50;;;0.50;;
4867;SDS011;2448;48.086;10.862;2023-08-06T12:14:03;1.80;;;0.50;;
4867;SDS011;2448;48.086;10.862;2023-08-06T12:16:28;0.40;;;0.40;;
4867;SDS011;2448;48.086;10.862;2023-08-06T12:18:53;0.87;;;0.50;;
4867;SDS011;2448;48.086;10.862;2023-08-06T12:21:19;0.50;;;0.50;;
4867;SDS011;2448;48.086;10.862;2023-08-06T12:23:44;0.40;;;0.40;;
4867;SDS011;2448;48.086;10.862;2023-08-06T12:26:09;2.30;;;0.50;;
4867;SDS011;2448;48.086;10.862;2023-08-06T12:28:35;0.40;;;0.40;;
4867;SDS011;2448;48.086;10.862;2023-08-06T12:31:00;0.43;;;0.43;;
4867;SDS011;2448;48.086;10.862;2023-08-06T12:33:26;0.60;;;0.60;;
4867;SDS011;2448;48.086;10.862;2023-08-06T12:35:51;0.60;;;0.60;;
4867;SDS011;2448;48.086;10.862;2023-08-06T12:38:20;0.50;;;0.50;;
4867;SDS011;2448;48.086;10.862;2023-08-06T12:40:45;0.63;;;0.63;;
4867;SDS011;2448;48.086;10.862;2023-08-06T12:43:10;0.50;;;0.50;;
4867;SDS011;2448;48.086;10.862;2023-08-06T12:45:36;0.50;;;0.50;;
4867;SDS011;2448;48.086;10.862;2023-08-06T12:48:02;0.50;;;0.50;;
4867;SDS011;2448;48.086;10.862;2023-08-06T12:50:27;0.50;;;0.50;;
4867;SDS011;2448;48.086;10.862;2023-08-06T12:52:53;0.60;;;0.60;;
4867;SDS011;2448;48.086;10.862;2023-08-06T12:55:21;6.67;;;0.70;;
4867;SDS011;2448;48.086;10.862;2023-08-06T12:57:46;0.50;;;0.50;;
4867;SDS011;2448;48.086;10.862;2023-08-06T13:00:12;0.60;;;0.60;;
4867;SDS011;2448;48.086;10.862;2023-08-06T13:02:40;1.93;;;0.60;;
4867;SDS011;2448;48.086;10.862;2023-08-06T13:05:05;0.50;;;0.50;;
4867;SDS011;2448;48.086;10.862;2023-08-06T13:07:31;0.40;;;0.40;;
4867;SDS011;2448;48.086;10.862;2023-08-06T13:09:56;0.60;;;0.60;;
4867;SDS011;2448;48.086;10.862;2023-08-06T13:12:22;0.47;;;0.47;;
4867;SDS011;2448;48.086;10.862;2023-08-06T13:14:48;0.50;;;0.50;;
4867;SDS011;2448;48.086;10.862;2023-08-06T13:17:13;0.60;;;0.60;;
4867;SDS011;2448;48.086;10.862;2023-08-06T13:19:39;0.50;;;0.50;;
4867;SDS011;2448;48.086;10.862;2023-08-06T13:22:07;0.50;;;0.50;;
4867;SDS011;2448;48.086;10.862;2023-08-06T13:24:35;0.50;;;0.50;;
4867;SDS011;2448;48.086;10.862;2023-08-06T13:27:01;0.97;;;0.70;;
4867;SDS011;2448;48.086;10.862;2023-08-06T13:29:26;0.40;;;0.40;;
4867;SDS011;2448;48.086;10.862;2023-08-06T13:31:52;1.50;;;0.57;;
4867;SDS011;2448;48.086;10.862;2023-08-06T13:34:24;0.50;;;0.50;;
4867;SDS011;2448;48.086;10.862;2023-08-06T13:36:55;0.47;;;0.47;;
4867;SDS011;2448;48.086;10.862;2023-08-06T13:39:20;0.50;;;0.50;;
4867;SDS011;2448;48.086;10.862;2023-08-06T13:41:48;0.60;;;0.60;;
4867;SDS011;2448;48.086;10.862;2023-08-06T13:44:14;0.60;;;0.60;;
4867;SDS011;2448;48.086;10.862;2023-08-06T13:46:40;0.40;;;0.40;;
4867;SDS011;2448;48.086;10.862;2023-08-06T13:49:06;0.50;;;0.50;;
4867;SDS011;2448;48.086;10.862;2023-08-06T13:51:33;0.43;;;0.43;;
4867;SDS011;2448;48.086;10.862;2023-08-06T13:54:00;0.47;;;0.47;;
4867;SDS011;2448;48.086;10.862;2023-08-06T13:56:26;0.50;;;0.50;;
4867;SDS011;2448;48.086;10.862;2023-08-06T13:58:51;0.60;;;0.60;;
4867;SDS011;2448;48.086;10.862;2023-08-06T14:01:17;0.63;;;0.63;;
4867;SDS011;2448;48.086;10.862;2023-08-06T14:03:43;0.50;;;0.50;;
4867;SDS011;2448;48.086;10.862;2023-08-06T14:06:09;0.57;;;0.57;;
4867;SDS011;2448;48.086;10.862;2023-08-06T14:08:34;0.60;;;0.60;;
4867;SDS011;2448;48.086;10.862;2023-08-06T14:10:59;0.50;;;0.50;;
4867;SDS011;2448;48.086;10.862;2023-08-06T14:13:25;0.67;;;0.67;;
4867;SDS011;2448;48.086;10.862;2023-08-06T14:15:50;0.60;;;0.60;;
4867;SDS011;2448;48.086;10.862;2023-08-06T14:18:16;1.70;;;0.50;;
4867;SDS011;2448;48.086;10.862;2023-08-06T14:20:42;0.53;;;0.53;;
4867;SDS011;2448;48.086;10.862;2023-08-06T14:23:08;6.60;;;0.53;;
4867;SDS011;2448;48.086;10.862;2023-08-06T14:25:33;0.50;;;0.50;;
4867;SDS011;2448;48.086;10.862;2023-08-06T14:27:59;0.57;;;0.57;;
4867;SDS011;2448;48.086;10.862;2023-08-06T14:30:24;0.50;;;0.50;;
4867;SDS011;2448;48.086;10.862;2023-08-06T14:32:49;0.50;;;0.50;;
4867;SDS011;2448;48.086;10.862;2023-08-06T14:35:15;0.50;;;0.50;;
4867;SDS011;2448;48.086;10.862;2023-08-06T14:37:40;3.40;;;0.57;;
4867;SDS011;2448;48.086;10.862;2023-08-06T14:40:06;0.50;;;0.50;;
4867;SDS011;2448;48.086;10.862;2023-08-06T14:42:32;0.50;;;0.50;;
4867;SDS011;2448;48.086;10.862;2023-08-06T14:44:57;0.60;;;0.60;;
4867;SDS011;2448;48.086;10.862;2023-08-06T14:47:22;0.50;;;0.50;;
4867;SDS011;2448;48.086;10.862;2023-08-06T14:49:48;0.60;;;0.60;;
4867;SDS011;2448;48.086;10.862;2023-08-06T14:52:14;1.03;;;0.70;;
4867;SDS011;2448;48.086;10.862;2023-08-06T14:54:40;0.50;;;0.50;;
4867;SDS011;2448;48.086;10.862;2023-08-06T14:57:05;0.50;;;0.50;;
4867;SDS011;2448;48.086;10.862;2023-08-06T14:59:32;0.40;;;0.40;;
4867;SDS011;2448;48.086;10.862;2023-08-06T15:01:57;0.70;;;0.40;;
4867;SDS011;2448;48.086;10.862;2023-08-06T15:04:23;0.50;;;0.50;;